Time;durP1;ratioP1;P1;durP2;ratioP2;P2;SDS_P1;SDS_P2;PMS_P1;PMS_P2;Temp;Humidity;BMP_temperature;BMP_pressure;BME280_temperature;BME280_humidity;BME280_pressure;Samples;Min_cycle;Max_cycle;Signal;HPM_P1;HPM_P2
2020/09/08 00:00:45;;;;;;;31.3;25.65;;;;;;;9.91;100;96164.67;;;;
2020/09/08 00:01:46;;;;;;;31.3;25.65;;;;;;;9.91;100;96164.67;;;;
2020/09/08 00:02:46;;;;;;;31.3;25.65;;;;;;;9.91;100;96164.67;;;;
2020/09/08 00:03:47;;;;;;;31.3;25.65;;;;;;;9.91;100;96164.67;;;;
2020/09/08 00:04:47;;;;;;;31.3;25.65;;;;;;;9.91;100;96164.67;;;;
2020/09/08 00:05:48;;;;;;;31.3;25.65;;;;;;;9.91;100;96164.67;;;;
2020/09/08 00:06:48;;;;;;;31.3;25.65;;;;;;;9.91;100;96164.67;;;;
2020/09/08 00:07:49;;;;;;;31.3;25.65;;;;;;;9.91;100;96164.67;;;;
2020/09/08 00:08:49;;;;;;;31.3;25.65;;;;;;;9.91;100;96164.67;;;;
2020/09/08 00:09:50;;;;;;;31.3;25.65;;;;;;;9.91;100;96164.67;;;;
2020/09/08 00:10:50;;;;;;;49.90001;34.39999;;;;;;;10.06;100;96166.2;;;;
2020/09/08 00:11:51;;;;;;;49.90001;34.39999;;;;;;;10.06;100;96166.2;;;;
2020/09/08 00:12:51;;;;;;;49.90001;34.39999;;;;;;;10.06;100;96166.2;;;;
2020/09/08 00:13:52;;;;;;;49.90001;34.39999;;;;;;;10.06;100;96166.2;;;;
2020/09/08 00:14:52;;;;;;;49.90001;34.39999;;;;;;;10.06;100;96166.2;;;;
2020/09/08 00:15:52;;;;;;;49.90001;34.39999;;;;;;;10.06;100;96166.2;;;;
2020/09/08 00:16:53;;;;;;;49.90001;34.39999;;;;;;;10.06;100;96166.2;;;;
2020/09/08 00:17:53;;;;;;;49.90001;34.39999;;;;;;;10.06;100;96166.2;;;;
2020/09/08 00:18:54;;;;;;;49.90001;34.39999;;;;;;;10.06;100;96166.2;;;;
2020/09/08 00:19:54;;;;;;;49.90001;34.39999;;;;;;;10.06;100;96166.2;;;;
2020/09/08 00:21:00;;;;;;;49.90001;34.39999;;;;;;;10.06;100;96166.2;;;;
2020/09/08 00:22:01;;;;;;;39.1;31.95;;;;;;;10.17;100;96157.58;;;;
2020/09/08 00:23:01;;;;;;;39.1;31.95;;;;;;;10.17;100;96157.58;;;;
2020/09/08 00:24:02;;;;;;;39.1;31.95;;;;;;;10.17;100;96157.58;;;;
2020/09/08 00:25:02;;;;;;;39.1;31.95;;;;;;;10.17;100;96157.58;;;;
2020/09/08 00:26:03;;;;;;;39.1;31.95;;;;;;;10.17;100;96157.58;;;;
2020/09/08 00:27:03;;;;;;;39.1;31.95;;;;;;;10.17;100;96157.58;;;;
2020/09/08 00:28:04;;;;;;;39.1;31.95;;;;;;;10.17;100;96157.58;;;;
2020/09/08 00:29:04;;;;;;;39.1;31.95;;;;;;;10.17;100;96157.58;;;;
2020/09/08 00:30:05;;;;;;;39.1;31.95;;;;;;;10.17;100;96157.58;;;;
2020/09/08 00:31:05;;;;;;;39.1;31.95;;;;;;;10.17;100;96157.58;;;;
2020/09/08 00:32:07;;;;;;;39.1;31.95;;;;;;;10.17;100;96157.58;;;;
2020/09/08 00:33:07;;;;;;;35.3;28.45;;;;;;;10.27;100;96159.75;;;;
2020/09/08 00:34:08;;;;;;;35.3;28.45;;;;;;;10.27;100;96159.75;;;;
2020/09/08 00:35:08;;;;;;;35.3;28.45;;;;;;;10.27;100;96159.75;;;;
2020/09/08 00:36:09;;;;;;;35.3;28.45;;;;;;;10.27;100;96159.75;;;;
2020/09/08 00:37:09;;;;;;;35.3;28.45;;;;;;;10.27;100;96159.75;;;;
2020/09/08 00:38:10;;;;;;;35.3;28.45;;;;;;;10.27;100;96159.75;;;;
2020/09/08 00:39:10;;;;;;;35.3;28.45;;;;;;;10.27;100;96159.75;;;;
2020/09/08 00:40:10;;;;;;;35.3;28.45;;;;;;;10.27;100;96159.75;;;;
2020/09/08 00:41:11;;;;;;;35.3;28.45;;;;;;;10.27;100;96159.75;;;;
2020/09/08 00:42:11;;;;;;;35.3;28.45;;;;;;;10.27;100;96159.75;;;;
2020/09/08 00:43:20;;;;;;;29.35;24.2;;;;;;;10.13;100;96166.63;;;;
2020/09/08 00:44:20;;;;;;;29.35;24.2;;;;;;;10.13;100;96166.63;;;;
2020/09/08 00:45:21;;;;;;;29.35;24.2;;;;;;;10.13;100;96166.63;;;;
2020/09/08 00:46:21;;;;;;;29.35;24.2;;;;;;;10.13;100;96166.63;;;;
2020/09/08 00:47:23;;;;;;;29.35;24.2;;;;;;;10.13;100;96166.63;;;;
2020/09/08 00:48:24;;;;;;;29.35;24.2;;;;;;;10.13;100;96166.63;;;;
2020/09/08 00:49:24;;;;;;;29.35;24.2;;;;;;;10.13;100;96166.63;;;;
2020/09/08 00:50:25;;;;;;;29.35;24.2;;;;;;;10.13;100;96166.63;;;;
2020/09/08 00:51:28;;;;;;;29.35;24.2;;;;;;;10.13;100;96166.63;;;;
2020/09/08 00:52:29;;;;;;;29.35;24.2;;;;;;;10.13;100;96166.63;;;;
2020/09/08 00:53:29;;;;;;;29.35;24.2;;;;;;;10.13;100;96166.63;;;;
2020/09/08 00:54:30;;;;;;;28.2;25.2;;;;;;;10.05;100;96165.91;;;;
2020/09/08 00:55:30;;;;;;;28.2;25.2;;;;;;;10.05;100;96165.91;;;;
2020/09/08 00:56:31;;;;;;;28.2;25.2;;;;;;;10.05;100;96165.91;;;;
2020/09/08 00:57:35;;;;;;;28.2;25.2;;;;;;;10.05;100;96165.91;;;;
2020/09/08 00:58:37;;;;;;;28.2;25.2;;;;;;;10.05;100;96165.91;;;;
2020/09/08 00:59:38;;;;;;;28.2;25.2;;;;;;;10.05;100;96165.91;;;;
2020/09/08 01:00:38;;;;;;;28.2;25.2;;;;;;;10.05;100;96165.91;;;;
2020/09/08 01:01:41;;;;;;;28.2;25.2;;;;;;;10.05;100;96165.91;;;;
2020/09/08 01:02:58;;;;;;;28.2;25.2;;;;;;;10.05;100;96165.91;;;;
2020/09/08 01:08:20;;;;;;;37.39999;31.85;;;;;;;10.14;100;96174.11;;;;
2020/09/08 01:09:37;;;;;;;37.39999;31.85;;;;;;;10.14;100;96174.11;;;;
2020/09/08 01:10:47;;;;;;;37.39999;31.85;;;;;;;10.14;100;96174.11;;;;
2020/09/08 01:11:57;;;;;;;37.39999;31.85;;;;;;;10.14;100;96174.11;;;;
2020/09/08 01:13:05;;;;;;;37.39999;31.85;;;;;;;10.14;100;96174.11;;;;
2020/09/08 01:14:09;;;;;;;37.39999;31.85;;;;;;;10.14;100;96174.11;;;;
2020/09/08 01:15:15;;;;;;;43.79999;35.1;;;;;;;10.46;100;96165.17;;;;
2020/09/08 01:16:21;;;;;;;43.79999;35.1;;;;;;;10.46;100;96165.17;;;;
2020/09/08 01:17:22;;;;;;;43.79999;35.1;;;;;;;10.46;100;96165.17;;;;
2020/09/08 01:18:22;;;;;;;43.79999;35.1;;;;;;;10.46;100;96165.17;;;;
2020/09/08 01:19:23;;;;;;;43.79999;35.1;;;;;;;10.46;100;96165.17;;;;
2020/09/08 01:20:23;;;;;;;43.79999;35.1;;;;;;;10.46;100;96165.17;;;;
2020/09/08 01:21:25;;;;;;;43.79999;35.1;;;;;;;10.46;100;96165.17;;;;
2020/09/08 01:22:27;;;;;;;43.79999;35.1;;;;;;;10.46;100;96165.17;;;;
2020/09/08 01:23:28;;;;;;;43.79999;35.1;;;;;;;10.46;100;96165.17;;;;
2020/09/08 01:24:29;;;;;;;43.79999;35.1;;;;;;;10.46;100;96165.17;;;;
2020/09/08 01:25:29;;;;;;;43.79999;35.1;;;;;;;10.46;100;96165.17;;;;
2020/09/08 01:26:30;;;;;;;57.55;37.8;;;;;;;10.65;100;96162.39;;;;
2020/09/08 01:27:30;;;;;;;57.55;37.8;;;;;;;10.65;100;96162.39;;;;
2020/09/08 01:28:31;;;;;;;57.55;37.8;;;;;;;10.65;100;96162.39;;;;
2020/09/08 01:29:31;;;;;;;57.55;37.8;;;;;;;10.65;100;96162.39;;;;
2020/09/08 01:30:32;;;;;;;57.55;37.8;;;;;;;10.65;100;96162.39;;;;
2020/09/08 01:31:32;;;;;;;57.55;37.8;;;;;;;10.65;100;96162.39;;;;
2020/09/08 01:32:33;;;;;;;57.55;37.8;;;;;;;10.65;100;96162.39;;;;
2020/09/08 01:33:33;;;;;;;57.55;37.8;;;;;;;10.65;100;96162.39;;;;
2020/09/08 01:34:34;;;;;;;57.55;37.8;;;;;;;10.65;100;96162.39;;;;
2020/09/08 01:35:34;;;;;;;57.55;37.8;;;;;;;10.65;100;96162.39;;;;
2020/09/08 01:36:42;;;;;;;45.15001;37.05;;;;;;;10.82;100;96143.82;;;;
2020/09/08 01:37:43;;;;;;;45.15001;37.05;;;;;;;10.82;100;96143.82;;;;
2020/09/08 01:38:43;;;;;;;45.15001;37.05;;;;;;;10.82;100;96143.82;;;;
2020/09/08 01:39:44;;;;;;;45.15001;37.05;;;;;;;10.82;100;96143.82;;;;
2020/09/08 01:40:44;;;;;;;45.15001;37.05;;;;;;;10.82;100;96143.82;;;;
2020/09/08 01:41:45;;;;;;;45.15001;37.05;;;;;;;10.82;100;96143.82;;;;
2020/09/08 01:42:45;;;;;;;45.15001;37.05;;;;;;;10.82;100;96143.82;;;;
2020/09/08 01:43:45;;;;;;;45.15001;37.05;;;;;;;10.82;100;96143.82;;;;
2020/09/08 01:44:46;;;;;;;45.15001;37.05;;;;;;;10.82;100;96143.82;;;;
2020/09/08 01:45:46;;;;;;;45.15001;37.05;;;;;;;10.82;100;96143.82;;;;
2020/09/08 01:46:47;;;;;;;45.15001;37.05;;;;;;;10.82;100;96143.82;;;;
2020/09/08 01:47:48;;;;;;;45.9;35.75;;;;;;;10.88;100;96156.89;;;;
2020/09/08 01:48:48;;;;;;;45.9;35.75;;;;;;;10.88;100;96156.89;;;;
2020/09/08 01:49:48;;;;;;;45.9;35.75;;;;;;;10.88;100;96156.89;;;;
2020/09/08 01:50:49;;;;;;;45.9;35.75;;;;;;;10.88;100;96156.89;;;;
2020/09/08 01:51:49;;;;;;;45.9;35.75;;;;;;;10.88;100;96156.89;;;;
2020/09/08 01:52:50;;;;;;;45.9;35.75;;;;;;;10.88;100;96156.89;;;;
2020/09/08 01:53:50;;;;;;;45.9;35.75;;;;;;;10.88;100;96156.89;;;;
2020/09/08 01:54:51;;;;;;;45.9;35.75;;;;;;;10.88;100;96156.89;;;;
2020/09/08 01:55:52;;;;;;;45.9;35.75;;;;;;;10.88;100;96156.89;;;;
2020/09/08 01:56:52;;;;;;;45.9;35.75;;;;;;;10.88;100;96156.89;;;;
2020/09/08 01:57:53;;;;;;;41.3;35.5;;;;;;;10.96;100;96158.39;;;;
2020/09/08 01:58:53;;;;;;;41.3;35.5;;;;;;;10.96;100;96158.39;;;;
2020/09/08 01:59:53;;;;;;;41.3;35.5;;;;;;;10.96;100;96158.39;;;;
2020/09/08 02:00:54;;;;;;;41.3;35.5;;;;;;;10.96;100;96158.39;;;;
2020/09/08 02:01:54;;;;;;;41.3;35.5;;;;;;;10.96;100;96158.39;;;;
2020/09/08 02:02:55;;;;;;;41.3;35.5;;;;;;;10.96;100;96158.39;;;;
2020/09/08 02:03:55;;;;;;;41.3;35.5;;;;;;;10.96;100;96158.39;;;;
2020/09/08 02:04:56;;;;;;;41.3;35.5;;;;;;;10.96;100;96158.39;;;;
2020/09/08 02:05:56;;;;;;;41.3;35.5;;;;;;;10.96;100;96158.39;;;;
2020/09/08 02:06:57;;;;;;;41.3;35.5;;;;;;;10.96;100;96158.39;;;;
2020/09/08 02:07:57;;;;;;;41.3;35.5;;;;;;;10.96;100;96158.39;;;;
2020/09/08 02:08:58;;;;;;;38.75;33.90001;;;;;;;10.98;100;96166.28;;;;
2020/09/08 02:09:58;;;;;;;38.75;33.90001;;;;;;;10.98;100;96166.28;;;;
2020/09/08 02:10:59;;;;;;;38.75;33.90001;;;;;;;10.98;100;96166.28;;;;
2020/09/08 02:11:59;;;;;;;38.75;33.90001;;;;;;;10.98;100;96166.28;;;;
2020/09/08 02:13:00;;;;;;;38.75;33.90001;;;;;;;10.98;100;96166.28;;;;
2020/09/08 02:14:00;;;;;;;38.75;33.90001;;;;;;;10.98;100;96166.28;;;;
2020/09/08 02:15:01;;;;;;;38.75;33.90001;;;;;;;10.98;100;96166.28;;;;
2020/09/08 02:16:01;;;;;;;38.75;33.90001;;;;;;;10.98;100;96166.28;;;;
2020/09/08 02:17:02;;;;;;;38.75;33.90001;;;;;;;10.98;100;96166.28;;;;
2020/09/08 02:18:02;;;;;;;38.75;33.90001;;;;;;;10.98;100;96166.28;;;;
2020/09/08 02:19:03;;;;;;;37.2;33.2;;;;;;;11.08;100;96166.65;;;;
2020/09/08 02:20:03;;;;;;;37.2;33.2;;;;;;;11.08;100;96166.65;;;;
2020/09/08 02:21:04;;;;;;;37.2;33.2;;;;;;;11.08;100;96166.65;;;;
2020/09/08 02:22:04;;;;;;;37.2;33.2;;;;;;;11.08;100;96166.65;;;;
2020/09/08 02:23:05;;;;;;;37.2;33.2;;;;;;;11.08;100;96166.65;;;;
2020/09/08 02:24:05;;;;;;;37.2;33.2;;;;;;;11.08;100;96166.65;;;;
2020/09/08 02:25:06;;;;;;;37.2;33.2;;;;;;;11.08;100;96166.65;;;;
2020/09/08 02:26:06;;;;;;;37.2;33.2;;;;;;;11.08;100;96166.65;;;;
2020/09/08 02:27:07;;;;;;;37.2;33.2;;;;;;;11.08;100;96166.65;;;;
2020/09/08 02:28:08;;;;;;;37.2;33.2;;;;;;;11.08;100;96166.65;;;;
2020/09/08 02:29:08;;;;;;;37.2;33.2;;;;;;;11.08;100;96166.65;;;;
2020/09/08 02:30:09;;;;;;;35;31.35;;;;;;;11.08;100;96161.76;;;;
2020/09/08 02:31:09;;;;;;;35;31.35;;;;;;;11.08;100;96161.76;;;;
2020/09/08 02:32:09;;;;;;;35;31.35;;;;;;;11.08;100;96161.76;;;;
2020/09/08 02:33:10;;;;;;;35;31.35;;;;;;;11.08;100;96161.76;;;;
2020/09/08 02:34:10;;;;;;;35;31.35;;;;;;;11.08;100;96161.76;;;;
2020/09/08 02:35:11;;;;;;;35;31.35;;;;;;;11.08;100;96161.76;;;;
2020/09/08 02:36:11;;;;;;;35;31.35;;;;;;;11.08;100;96161.76;;;;
2020/09/08 02:37:12;;;;;;;35;31.35;;;;;;;11.08;100;96161.76;;;;
2020/09/08 02:38:12;;;;;;;35;31.35;;;;;;;11.08;100;96161.76;;;;
2020/09/08 02:39:13;;;;;;;35;31.35;;;;;;;11.08;100;96161.76;;;;
2020/09/08 02:40:13;;;;;;;35;31.35;;;;;;;11.08;100;96161.76;;;;
2020/09/08 02:41:14;;;;;;;37.55;31.5;;;;;;;11.16;100;96145.26;;;;
2020/09/08 02:42:14;;;;;;;37.55;31.5;;;;;;;11.16;100;96145.26;;;;
2020/09/08 02:43:15;;;;;;;37.55;31.5;;;;;;;11.16;100;96145.26;;;;
2020/09/08 02:44:15;;;;;;;37.55;31.5;;;;;;;11.16;100;96145.26;;;;
2020/09/08 02:45:15;;;;;;;37.55;31.5;;;;;;;11.16;100;96145.26;;;;
2020/09/08 02:46:16;;;;;;;37.55;31.5;;;;;;;11.16;100;96145.26;;;;
2020/09/08 02:47:16;;;;;;;37.55;31.5;;;;;;;11.16;100;96145.26;;;;
2020/09/08 02:48:17;;;;;;;37.55;31.5;;;;;;;11.16;100;96145.26;;;;
2020/09/08 02:49:17;;;;;;;37.55;31.5;;;;;;;11.16;100;96145.26;;;;
2020/09/08 02:50:18;;;;;;;37.55;31.5;;;;;;;11.16;100;96145.26;;;;
2020/09/08 02:51:18;;;;;;;49.2;32.95;;;;;;;11.19;100;96155.66;;;;
2020/09/08 02:52:19;;;;;;;49.2;32.95;;;;;;;11.19;100;96155.66;;;;
2020/09/08 02:53:19;;;;;;;49.2;32.95;;;;;;;11.19;100;96155.66;;;;
2020/09/08 02:54:19;;;;;;;49.2;32.95;;;;;;;11.19;100;96155.66;;;;
2020/09/08 02:55:20;;;;;;;49.2;32.95;;;;;;;11.19;100;96155.66;;;;
2020/09/08 02:56:20;;;;;;;49.2;32.95;;;;;;;11.19;100;96155.66;;;;
2020/09/08 02:57:21;;;;;;;49.2;32.95;;;;;;;11.19;100;96155.66;;;;
2020/09/08 02:58:21;;;;;;;49.2;32.95;;;;;;;11.19;100;96155.66;;;;
2020/09/08 02:59:22;;;;;;;49.2;32.95;;;;;;;11.19;100;96155.66;;;;
2020/09/08 03:00:22;;;;;;;49.2;32.95;;;;;;;11.19;100;96155.66;;;;
2020/09/08 03:01:23;;;;;;;49.2;32.95;;;;;;;11.19;100;96155.66;;;;
2020/09/08 03:02:23;;;;;;;42.9;34.79999;;;;;;;11.29;100;96163.59;;;;
2020/09/08 03:03:24;;;;;;;42.9;34.79999;;;;;;;11.29;100;96163.59;;;;
2020/09/08 03:04:24;;;;;;;42.9;34.79999;;;;;;;11.29;100;96163.59;;;;
2020/09/08 03:05:25;;;;;;;42.9;34.79999;;;;;;;11.29;100;96163.59;;;;
2020/09/08 03:06:25;;;;;;;42.9;34.79999;;;;;;;11.29;100;96163.59;;;;
2020/09/08 03:07:26;;;;;;;42.9;34.79999;;;;;;;11.29;100;96163.59;;;;
2020/09/08 03:08:26;;;;;;;42.9;34.79999;;;;;;;11.29;100;96163.59;;;;
2020/09/08 03:09:27;;;;;;;42.9;34.79999;;;;;;;11.29;100;96163.59;;;;
2020/09/08 03:10:27;;;;;;;42.9;34.79999;;;;;;;11.29;100;96163.59;;;;
2020/09/08 03:11:28;;;;;;;42.9;34.79999;;;;;;;11.29;100;96163.59;;;;
2020/09/08 03:12:28;;;;;;;67.89999;32.10001;;;;;;;11.31;100;96163.26;;;;
2020/09/08 03:13:29;;;;;;;67.89999;32.10001;;;;;;;11.31;100;96163.26;;;;
2020/09/08 03:14:29;;;;;;;67.89999;32.10001;;;;;;;11.31;100;96163.26;;;;
2020/09/08 03:15:29;;;;;;;67.89999;32.10001;;;;;;;11.31;100;96163.26;;;;
2020/09/08 03:16:31;;;;;;;67.89999;32.10001;;;;;;;11.31;100;96163.26;;;;
2020/09/08 03:17:31;;;;;;;67.89999;32.10001;;;;;;;11.31;100;96163.26;;;;
2020/09/08 03:18:32;;;;;;;67.89999;32.10001;;;;;;;11.31;100;96163.26;;;;
2020/09/08 03:19:32;;;;;;;67.89999;32.10001;;;;;;;11.31;100;96163.26;;;;
2020/09/08 03:20:33;;;;;;;67.89999;32.10001;;;;;;;11.31;100;96163.26;;;;
2020/09/08 03:21:33;;;;;;;67.89999;32.10001;;;;;;;11.31;100;96163.26;;;;
2020/09/08 03:22:34;;;;;;;67.89999;32.10001;;;;;;;11.31;100;96163.26;;;;
2020/09/08 03:23:34;;;;;;;42.05;29.95;;;;;;;11.37;100;96156.13;;;;
2020/09/08 03:24:35;;;;;;;42.05;29.95;;;;;;;11.37;100;96156.13;;;;
2020/09/08 03:25:35;;;;;;;42.05;29.95;;;;;;;11.37;100;96156.13;;;;
2020/09/08 03:26:36;;;;;;;42.05;29.95;;;;;;;11.37;100;96156.13;;;;
2020/09/08 03:27:36;;;;;;;42.05;29.95;;;;;;;11.37;100;96156.13;;;;
2020/09/08 03:28:37;;;;;;;42.05;29.95;;;;;;;11.37;100;96156.13;;;;
2020/09/08 03:29:38;;;;;;;42.05;29.95;;;;;;;11.37;100;96156.13;;;;
2020/09/08 03:30:38;;;;;;;42.05;29.95;;;;;;;11.37;100;96156.13;;;;
2020/09/08 03:31:39;;;;;;;42.05;29.95;;;;;;;11.37;100;96156.13;;;;
2020/09/08 03:32:40;;;;;;;42.05;29.95;;;;;;;11.37;100;96156.13;;;;
2020/09/08 03:33:41;;;;;;;49.3;29.65;;;;;;;11.35;100;96167.17;;;;
2020/09/08 03:34:41;;;;;;;49.3;29.65;;;;;;;11.35;100;96167.17;;;;
2020/09/08 03:35:42;;;;;;;49.3;29.65;;;;;;;11.35;100;96167.17;;;;
2020/09/08 03:36:42;;;;;;;49.3;29.65;;;;;;;11.35;100;96167.17;;;;
2020/09/08 03:37:43;;;;;;;49.3;29.65;;;;;;;11.35;100;96167.17;;;;
2020/09/08 03:38:43;;;;;;;49.3;29.65;;;;;;;11.35;100;96167.17;;;;
2020/09/08 03:39:44;;;;;;;49.3;29.65;;;;;;;11.35;100;96167.17;;;;
2020/09/08 03:40:44;;;;;;;49.3;29.65;;;;;;;11.35;100;96167.17;;;;
2020/09/08 03:41:45;;;;;;;49.3;29.65;;;;;;;11.35;100;96167.17;;;;
2020/09/08 03:42:45;;;;;;;49.3;29.65;;;;;;;11.35;100;96167.17;;;;
2020/09/08 03:43:46;;;;;;;49.3;29.65;;;;;;;11.35;100;96167.17;;;;
2020/09/08 03:44:47;;;;;;;41.05001;29.6;;;;;;;11.39;100;96161.63;;;;
2020/09/08 03:45:47;;;;;;;41.05001;29.6;;;;;;;11.39;100;96161.63;;;;
2020/09/08 03:46:48;;;;;;;41.05001;29.6;;;;;;;11.39;100;96161.63;;;;
2020/09/08 03:47:52;;;;;;;41.05001;29.6;;;;;;;11.39;100;96161.63;;;;
2020/09/08 03:48:55;;;;;;;41.05001;29.6;;;;;;;11.39;100;96161.63;;;;
2020/09/08 03:49:56;;;;;;;41.05001;29.6;;;;;;;11.39;100;96161.63;;;;
2020/09/08 03:50:56;;;;;;;41.05001;29.6;;;;;;;11.39;100;96161.63;;;;
2020/09/08 03:51:57;;;;;;;41.05001;29.6;;;;;;;11.39;100;96161.63;;;;
2020/09/08 03:52:59;;;;;;;41.05001;29.6;;;;;;;11.39;100;96161.63;;;;
2020/09/08 03:53:59;;;;;;;41.05001;29.6;;;;;;;11.39;100;96161.63;;;;
2020/09/08 03:55:00;;;;;;;36.25;26.9;;;;;;;11.35;100;96153.78;;;;
2020/09/08 03:56:00;;;;;;;36.25;26.9;;;;;;;11.35;100;96153.78;;;;
2020/09/08 03:57:01;;;;;;;36.25;26.9;;;;;;;11.35;100;96153.78;;;;
2020/09/08 03:58:01;;;;;;;36.25;26.9;;;;;;;11.35;100;96153.78;;;;
2020/09/08 03:59:02;;;;;;;36.25;26.9;;;;;;;11.35;100;96153.78;;;;
2020/09/08 04:00:03;;;;;;;36.25;26.9;;;;;;;11.35;100;96153.78;;;;
2020/09/08 04:01:11;;;;;;;36.25;26.9;;;;;;;11.35;100;96153.78;;;;
2020/09/08 04:02:11;;;;;;;36.25;26.9;;;;;;;11.35;100;96153.78;;;;
2020/09/08 04:03:12;;;;;;;36.25;26.9;;;;;;;11.35;100;96153.78;;;;
2020/09/08 04:04:12;;;;;;;36.25;26.9;;;;;;;11.35;100;96153.78;;;;
2020/09/08 04:05:13;;;;;;;36.25;26.9;;;;;;;11.35;100;96153.78;;;;
2020/09/08 04:06:13;;;;;;;32.8;28.65;;;;;;;11.36;100;96172.06;;;;
2020/09/08 04:07:23;;;;;;;32.8;28.65;;;;;;;11.36;100;96172.06;;;;
2020/09/08 04:08:24;;;;;;;32.8;28.65;;;;;;;11.36;100;96172.06;;;;
2020/09/08 04:09:24;;;;;;;32.8;28.65;;;;;;;11.36;100;96172.06;;;;
2020/09/08 04:10:25;;;;;;;32.8;28.65;;;;;;;11.36;100;96172.06;;;;
2020/09/08 04:11:25;;;;;;;32.8;28.65;;;;;;;11.36;100;96172.06;;;;
2020/09/08 04:12:27;;;;;;;32.8;28.65;;;;;;;11.36;100;96172.06;;;;
2020/09/08 04:13:43;;;;;;;32.8;28.65;;;;;;;11.36;100;96172.06;;;;
2020/09/08 04:14:44;;;;;;;32.8;28.65;;;;;;;11.36;100;96172.06;;;;
2020/09/08 04:15:44;;;;;;;32.8;28.65;;;;;;;11.36;100;96172.06;;;;
2020/09/08 04:16:45;;;;;;;32.95;27.6;;;;;;;11.36;100;96170.7;;;;
2020/09/08 04:17:45;;;;;;;32.95;27.6;;;;;;;11.36;100;96170.7;;;;
2020/09/08 04:18:51;;;;;;;32.95;27.6;;;;;;;11.36;100;96170.7;;;;
2020/09/08 04:19:53;;;;;;;32.95;27.6;;;;;;;11.36;100;96170.7;;;;
2020/09/08 04:20:54;;;;;;;32.95;27.6;;;;;;;11.36;100;96170.7;;;;
2020/09/08 04:21:54;;;;;;;32.95;27.6;;;;;;;11.36;100;96170.7;;;;
2020/09/08 04:23:09;;;;;;;32.95;27.6;;;;;;;11.36;100;96170.7;;;;
2020/09/08 04:24:11;;;;;;;32.95;27.6;;;;;;;11.36;100;96170.7;;;;
2020/09/08 04:25:13;;;;;;;32.95;27.6;;;;;;;11.36;100;96170.7;;;;
2020/09/08 04:26:14;;;;;;;32.95;27.6;;;;;;;11.36;100;96170.7;;;;
2020/09/08 04:27:18;;;;;;;44.59999;27.55;;;;;;;11.43;100;96178.66;;;;
2020/09/08 04:28:19;;;;;;;44.59999;27.55;;;;;;;11.43;100;96178.66;;;;
2020/09/08 04:29:24;;;;;;;44.59999;27.55;;;;;;;11.43;100;96178.66;;;;
2020/09/08 04:30:25;;;;;;;44.59999;27.55;;;;;;;11.43;100;96178.66;;;;
2020/09/08 04:31:29;;;;;;;44.59999;27.55;;;;;;;11.43;100;96178.66;;;;
2020/09/08 04:32:30;;;;;;;44.59999;27.55;;;;;;;11.43;100;96178.66;;;;
2020/09/08 04:33:31;;;;;;;44.59999;27.55;;;;;;;11.43;100;96178.66;;;;
2020/09/08 04:34:34;;;;;;;44.59999;27.55;;;;;;;11.43;100;96178.66;;;;
2020/09/08 04:35:35;;;;;;;44.59999;27.55;;;;;;;11.43;100;96178.66;;;;
2020/09/08 04:36:36;;;;;;;44.59999;27.55;;;;;;;11.43;100;96178.66;;;;
2020/09/08 04:37:37;;;;;;;44.59999;27.55;;;;;;;11.43;100;96178.66;;;;
2020/09/08 04:38:38;;;;;;;58.95;26.7;;;;;;;11.44;100;96189.77;;;;
2020/09/08 04:39:40;;;;;;;58.95;26.7;;;;;;;11.44;100;96189.77;;;;
2020/09/08 04:40:46;;;;;;;58.95;26.7;;;;;;;11.44;100;96189.77;;;;
2020/09/08 04:41:48;;;;;;;58.95;26.7;;;;;;;11.44;100;96189.77;;;;
2020/09/08 04:42:50;;;;;;;58.95;26.7;;;;;;;11.44;100;96189.77;;;;
2020/09/08 04:43:55;;;;;;;58.95;26.7;;;;;;;11.44;100;96189.77;;;;
2020/09/08 04:44:58;;;;;;;58.95;26.7;;;;;;;11.44;100;96189.77;;;;
2020/09/08 04:46:02;;;;;;;58.95;26.7;;;;;;;11.44;100;96189.77;;;;
2020/09/08 04:47:02;;;;;;;58.95;26.7;;;;;;;11.44;100;96189.77;;;;
2020/09/08 04:48:03;;;;;;;58.95;26.7;;;;;;;11.44;100;96189.77;;;;
2020/09/08 04:49:05;;;;;;;63.6;27.85;;;;;;;11.52;100;96202.11;;;;
2020/09/08 04:50:07;;;;;;;63.6;27.85;;;;;;;11.52;100;96202.11;;;;
2020/09/08 04:51:08;;;;;;;63.6;27.85;;;;;;;11.52;100;96202.11;;;;
2020/09/08 04:52:17;;;;;;;63.6;27.85;;;;;;;11.52;100;96202.11;;;;
2020/09/08 04:53:22;;;;;;;63.6;27.85;;;;;;;11.52;100;96202.11;;;;
2020/09/08 04:54:27;;;;;;;63.6;27.85;;;;;;;11.52;100;96202.11;;;;
2020/09/08 04:55:31;;;;;;;63.6;27.85;;;;;;;11.52;100;96202.11;;;;
2020/09/08 04:56:33;;;;;;;63.6;27.85;;;;;;;11.52;100;96202.11;;;;
2020/09/08 04:57:38;;;;;;;63.6;27.85;;;;;;;11.52;100;96202.11;;;;
2020/09/08 04:58:40;;;;;;;63.6;27.85;;;;;;;11.52;100;96202.11;;;;
2020/09/08 04:59:40;;;;;;;42.95;26.25;;;;;;;11.6;100;96207.78;;;;
2020/09/08 05:00:41;;;;;;;42.95;26.25;;;;;;;11.6;100;96207.78;;;;
2020/09/08 05:01:42;;;;;;;42.95;26.25;;;;;;;11.6;100;96207.78;;;;
2020/09/08 05:02:43;;;;;;;42.95;26.25;;;;;;;11.6;100;96207.78;;;;
2020/09/08 05:03:46;;;;;;;42.95;26.25;;;;;;;11.6;100;96207.78;;;;
2020/09/08 05:04:47;;;;;;;42.95;26.25;;;;;;;11.6;100;96207.78;;;;
2020/09/08 05:05:47;;;;;;;42.95;26.25;;;;;;;11.6;100;96207.78;;;;
2020/09/08 05:06:48;;;;;;;42.95;26.25;;;;;;;11.6;100;96207.78;;;;
2020/09/08 05:07:48;;;;;;;42.95;26.25;;;;;;;11.6;100;96207.78;;;;
2020/09/08 05:08:49;;;;;;;42.95;26.25;;;;;;;11.6;100;96207.78;;;;
2020/09/08 05:09:49;;;;;;;61.5;27.45;;;;;;;11.76;100;96222.66;;;;
2020/09/08 05:10:50;;;;;;;61.5;27.45;;;;;;;11.76;100;96222.66;;;;
2020/09/08 05:11:51;;;;;;;61.5;27.45;;;;;;;11.76;100;96222.66;;;;
2020/09/08 05:12:52;;;;;;;61.5;27.45;;;;;;;11.76;100;96222.66;;;;
2020/09/08 05:13:52;;;;;;;61.5;27.45;;;;;;;11.76;100;96222.66;;;;
2020/09/08 05:14:53;;;;;;;61.5;27.45;;;;;;;11.76;100;96222.66;;;;
2020/09/08 05:15:54;;;;;;;61.5;27.45;;;;;;;11.76;100;96222.66;;;;
2020/09/08 05:16:56;;;;;;;61.5;27.45;;;;;;;11.76;100;96222.66;;;;
2020/09/08 05:17:58;;;;;;;61.5;27.45;;;;;;;11.76;100;96222.66;;;;
2020/09/08 05:19:03;;;;;;;61.5;27.45;;;;;;;11.76;100;96222.66;;;;
2020/09/08 05:20:03;;;;;;;61.5;27.45;;;;;;;11.76;100;96222.66;;;;
2020/09/08 05:21:04;;;;;;;39.45;28.25;;;;;;;11.86;100;96220.28;;;;
2020/09/08 05:22:07;;;;;;;39.45;28.25;;;;;;;11.86;100;96220.28;;;;
2020/09/08 05:23:07;;;;;;;39.45;28.25;;;;;;;11.86;100;96220.28;;;;
2020/09/08 05:24:08;;;;;;;39.45;28.25;;;;;;;11.86;100;96220.28;;;;
2020/09/08 05:25:08;;;;;;;39.45;28.25;;;;;;;11.86;100;96220.28;;;;
2020/09/08 05:26:09;;;;;;;39.45;28.25;;;;;;;11.86;100;96220.28;;;;
2020/09/08 05:27:12;;;;;;;39.45;28.25;;;;;;;11.86;100;96220.28;;;;
2020/09/08 05:28:16;;;;;;;39.45;28.25;;;;;;;11.86;100;96220.28;;;;
2020/09/08 05:29:17;;;;;;;39.45;28.25;;;;;;;11.86;100;96220.28;;;;
2020/09/08 05:30:18;;;;;;;39.45;28.25;;;;;;;11.86;100;96220.28;;;;
2020/09/08 05:31:22;;;;;;;38.75;27.5;;;;;;;12.04;100;96218.88;;;;
2020/09/08 05:32:23;;;;;;;38.75;27.5;;;;;;;12.04;100;96218.88;;;;
2020/09/08 05:33:24;;;;;;;38.75;27.5;;;;;;;12.04;100;96218.88;;;;
2020/09/08 05:34:25;;;;;;;38.75;27.5;;;;;;;12.04;100;96218.88;;;;
2020/09/08 05:35:27;;;;;;;38.75;27.5;;;;;;;12.04;100;96218.88;;;;
2020/09/08 05:36:28;;;;;;;38.75;27.5;;;;;;;12.04;100;96218.88;;;;
2020/09/08 05:37:29;;;;;;;38.75;27.5;;;;;;;12.04;100;96218.88;;;;
2020/09/08 05:52:55;;;;;;;30.4;24.35;;;;;;;12.35;100;96236.91;;;;
2020/09/08 05:53:56;;;;;;;30.4;24.35;;;;;;;12.35;100;96236.91;;;;
2020/09/08 05:54:56;;;;;;;30.4;24.35;;;;;;;12.35;100;96236.91;;;;
2020/09/08 05:55:57;;;;;;;30.4;24.35;;;;;;;12.35;100;96236.91;;;;
2020/09/08 05:56:58;;;;;;;30.4;24.35;;;;;;;12.35;100;96236.91;;;;
2020/09/08 05:58:02;;;;;;;30.4;24.35;;;;;;;12.35;100;96236.91;;;;
2020/09/08 05:59:03;;;;;;;30.4;24.35;;;;;;;12.35;100;96236.91;;;;
2020/09/08 06:00:08;;;;;;;30.4;24.35;;;;;;;12.35;100;96236.91;;;;
2020/09/08 06:01:08;;;;;;;30.4;24.35;;;;;;;12.35;100;96236.91;;;;
2020/09/08 06:02:11;;;;;;;30.4;24.35;;;;;;;12.35;100;96236.91;;;;
2020/09/08 06:03:13;;;;;;;27;21.95;;;;;;;12.56;100;96237;;;;
2020/09/08 06:04:14;;;;;;;27;21.95;;;;;;;12.56;100;96237;;;;
2020/09/08 06:05:18;;;;;;;27;21.95;;;;;;;12.56;100;96237;;;;
2020/09/08 06:06:18;;;;;;;27;21.95;;;;;;;12.56;100;96237;;;;
2020/09/08 06:07:20;;;;;;;27;21.95;;;;;;;12.56;100;96237;;;;
2020/09/08 06:08:21;;;;;;;27;21.95;;;;;;;12.56;100;96237;;;;
2020/09/08 06:09:22;;;;;;;27;21.95;;;;;;;12.56;100;96237;;;;
2020/09/08 06:10:23;;;;;;;27;21.95;;;;;;;12.56;100;96237;;;;
2020/09/08 06:11:24;;;;;;;27;21.95;;;;;;;12.56;100;96237;;;;
2020/09/08 06:12:28;;;;;;;27;21.95;;;;;;;12.56;100;96237;;;;
2020/09/08 06:13:34;;;;;;;27;21.95;;;;;;;12.56;100;96237;;;;
2020/09/08 06:14:34;;;;;;;30.85;22.3;;;;;;;12.81;100;96262.56;;;;
2020/09/08 06:15:35;;;;;;;30.85;22.3;;;;;;;12.81;100;96262.56;;;;
2020/09/08 06:16:35;;;;;;;30.85;22.3;;;;;;;12.81;100;96262.56;;;;
2020/09/08 06:17:36;;;;;;;30.85;22.3;;;;;;;12.81;100;96262.56;;;;
2020/09/08 06:18:40;;;;;;;30.85;22.3;;;;;;;12.81;100;96262.56;;;;
2020/09/08 06:19:41;;;;;;;30.85;22.3;;;;;;;12.81;100;96262.56;;;;
2020/09/08 06:20:52;;;;;;;30.85;22.3;;;;;;;12.81;100;96262.56;;;;
2020/09/08 06:21:54;;;;;;;30.85;22.3;;;;;;;12.81;100;96262.56;;;;
2020/09/08 06:22:56;;;;;;;30.85;22.3;;;;;;;12.81;100;96262.56;;;;